Time;durP1;ratioP1;P1;durP2;ratioP2;P2;SDS_P1;SDS_P2;PMS_P1;PMS_P2;Temp;Humidity;BMP_temperature;BMP_pressure;BME280_temperature;BME280_humidity;BME280_pressure;Samples;Min_cycle;Max_cycle;Signal;HPM_P1;HPM_P2
2022/12/04 00:01:43;;;;;;;6.43;2.28;;;;;;;;;;5072248;28;20044;-62
2022/12/04 00:04:14;;;;;;;4.75;2.20;;;;;;;;;;5073186;28;20041;-62
2022/12/04 00:06:44;;;;;;;5.38;2.65;;;;;;;;;;5037853;28;20055;-62
2022/12/04 00:09:14;;;;;;;5.75;2.22;;;;;;;;;;5073006;28;20044;-62
2022/12/04 00:11:44;;;;;;;4.82;2.30;;;;;;;;;;5054201;28;20067;-62
2022/12/04 00:14:14;;;;;;;5.35;2.80;;;;;;;;;;5053092;28;20056;-63
2022/12/04 00:16:44;;;;;;;6.90;2.58;;;;;;;;;;5073095;28;20056;-62
2022/12/04 00:19:14;;;;;;;3.50;2.03;;;;;;;;;;5071700;28;20407;-63
2022/12/04 00:21:44;;;;;;;5.20;2.30;;;;;;;;;;5054151;28;20055;-63
2022/12/04 00:24:16;;;;;;;5.65;2.13;;;;;;;;;;5072572;28;20040;-63
2022/12/04 00:26:46;;;;;;;5.35;2.38;;;;;;;;;;5020651;28;20487;-62
2022/12/04 00:29:16;;;;;;;5.18;2.20;;;;;;;;;;5072800;28;20047;-63
2022/12/04 00:31:46;;;;;;;5.47;2.63;;;;;;;;;;5072718;28;20507;-63
2022/12/04 00:34:16;;;;;;;6.03;1.73;;;;;;;;;;5072664;28;20052;-63
2022/12/04 00:36:46;;;;;;;7.57;2.78;;;;;;;;;;5072615;28;20055;-62
2022/12/04 00:39:16;;;;;;;5.90;2.67;;;;;;;;;;5054127;28;20063;-62
2022/12/04 00:41:46;;;;;;;6.70;2.10;;;;;;;;;;5087917;28;20056;-62
2022/12/04 00:44:16;;;;;;;6.13;1.80;;;;;;;;;;5053802;28;20052;-61
2022/12/04 00:46:46;;;;;;;6.72;1.83;;;;;;;;;;5036899;28;20080;-62
2022/12/04 00:49:16;;;;;;;3.17;2.40;;;;;;;;;;5072419;28;20045;-61
2022/12/04 00:51:46;;;;;;;5.00;2.50;;;;;;;;;;5072230;28;20052;-62
2022/12/04 00:54:16;;;;;;;5.13;1.98;;;;;;;;;;5037089;28;20053;-63
2022/12/04 00:56:46;;;;;;;4.22;2.28;;;;;;;;;;5017043;28;20060;-62
2022/12/04 00:59:16;;;;;;;5.03;2.10;;;;;;;;;;5017161;28;20056;-62
2022/12/04 01:01:45;;;;;;;4.93;1.90;;;;;;;;;;5033748;28;20056;-62
2022/12/04 01:04:15;;;;;;;5.03;2.28;;;;;;;;;;5052225;28;20049;-62
2022/12/04 01:06:46;;;;;;;5.25;2.40;;;;;;;;;;5051834;28;20056;-62
2022/12/04 01:09:16;;;;;;;27.63;3.10;;;;;;;;;;5016906;28;20057;-62
2022/12/04 01:11:46;;;;;;;5.15;1.95;;;;;;;;;;5051761;28;20404;-62
2022/12/04 01:14:16;;;;;;;5.55;2.33;;;;;;;;;;5051668;28;20037;-62
2022/12/04 01:16:46;;;;;;;4.63;2.33;;;;;;;;;;5051966;28;20068;-63
2022/12/04 01:19:16;;;;;;;6.97;2.65;;;;;;;;;;5033672;28;20079;-63
2022/12/04 01:21:46;;;;;;;4.82;2.67;;;;;;;;;;5051903;28;20629;-63
2022/12/04 01:24:16;;;;;;;3.78;2.22;;;;;;;;;;5032897;28;20060;-62
2022/12/04 01:26:46;;;;;;;4.75;2.20;;;;;;;;;;5033032;28;20057;-63
2022/12/04 01:29:16;;;;;;;5.97;2.60;;;;;;;;;;5016664;28;20057;-63
2022/12/04 01:31:46;;;;;;;8.90;2.28;;;;;;;;;;5029123;28;20128;-63
2022/12/04 01:34:16;;;;;;;3.45;1.92;;;;;;;;;;5012992;28;20612;-63
2022/12/04 01:36:47;;;;;;;7.60;2.83;;;;;;;;;;4996474;28;20049;-63
2022/12/04 01:39:17;;;;;;;5.72;2.50;;;;;;;;;;4963911;28;20046;-62
2022/12/04 01:41:48;;;;;;;6.15;4.30;;;;;;;;;;5029061;28;20049;-63
2022/12/04 01:44:21;;;;;;;11.13;2.55;;;;;;;;;;4989946;28;20425;-63
2022/12/04 01:46:56;;;;;;;3.50;2.13;;;;;;;;;;4989956;28;20387;-63
2022/12/04 01:49:33;;;;;;;6.03;2.60;;;;;;;;;;4989973;28;20055;-62
2022/12/04 01:52:11;;;;;;;3.85;2.42;;;;;;;;;;4989803;28;20065;-62
2022/12/04 01:54:45;;;;;;;6.82;3.10;;;;;;;;;;4992812;28;20113;-62
2022/12/04 01:57:17;;;;;;;5.72;2.17;;;;;;;;;;4960822;28;20046;-64
2022/12/04 01:59:52;;;;;;;5.25;2.15;;;;;;;;;;5009571;28;20054;-63
2022/12/04 02:02:35;;;;;;;5.07;2.10;;;;;;;;;;5015194;28;20053;-63
2022/12/04 02:05:09;;;;;;;6.45;2.85;;;;;;;;;;5029399;28;20053;-62
2022/12/04 02:07:42;;;;;;;5.82;2.35;;;;;;;;;;5029151;28;20416;-62
2022/12/04 02:10:15;;;;;;;4.82;2.97;;;;;;;;;;5029069;28;20053;-63
2022/12/04 02:12:54;;;;;;;8.02;2.45;;;;;;;;;;5029094;28;20050;-63
2022/12/04 02:15:47;;;;;;;6.30;3.05;;;;;;;;;;5028764;28;20061;-63
2022/12/04 02:18:45;;;;;;;5.85;3.03;;;;;;;;;;4958102;28;20066;-63
2022/12/04 02:21:38;;;;;;;6.03;2.70;;;;;;;;;;4982498;28;20049;-63
2022/12/04 02:24:16;;;;;;;8.25;2.13;;;;;;;;;;5028893;28;20050;-65
2022/12/04 02:27:01;;;;;;;6.13;3.15;;;;;;;;;;5028962;28;20528;-65
2022/12/04 02:29:55;;;;;;;3.95;2.63;;;;;;;;;;4995955;28;20057;-65
2022/12/04 02:32:37;;;;;;;5.55;2.70;;;;;;;;;;5012799;28;20398;-65
2022/12/04 02:35:36;;;;;;;7.38;2.85;;;;;;;;;;5028786;28;20041;-64
2022/12/04 02:38:33;;;;;;;6.57;3.03;;;;;;;;;;4979262;28;20528;-63
2022/12/04 02:41:23;;;;;;;5.25;3.05;;;;;;;;;;4973703;28;20414;-63
2022/12/04 02:44:04;;;;;;;6.28;3.15;;;;;;;;;;4973503;28;20506;-63
2022/12/04 02:46:45;;;;;;;4.05;2.30;;;;;;;;;;4973714;28;20564;-63
2022/12/04 02:49:38;;;;;;;5.00;2.53;;;;;;;;;;4973334;28;20055;-66
2022/12/04 02:52:12;;;;;;;4.13;2.00;;;;;;;;;;4915909;29;20056;-65
2022/12/04 02:54:49;;;;;;;5.13;1.50;;;;;;;;;;4919078;29;20058;-63
2022/12/04 02:57:25;;;;;;;2.72;1.52;;;;;;;;;;4918774;29;20435;-64
2022/12/04 02:59:57;;;;;;;3.22;1.70;;;;;;;;;;4902932;29;20055;-63
2022/12/04 03:02:34;;;;;;;4.68;2.08;;;;;;;;;;4934612;29;20564;-63
2022/12/04 03:05:10;;;;;;;3.40;2.05;;;;;;;;;;4934856;29;20048;-64
2022/12/04 03:08:03;;;;;;;4.28;2.30;;;;;;;;;;4902969;29;20047;-64
2022/12/04 03:10:45;;;;;;;5.90;2.25;;;;;;;;;;4934650;29;20523;-63
2022/12/04 03:13:20;;;;;;;4.95;1.70;;;;;;;;;;4899610;29;20659;-63
2022/12/04 03:16:00;;;;;;;3.38;2.17;;;;;;;;;;4921570;29;20052;-63
2022/12/04 03:18:44;;;;;;;3.17;1.52;;;;;;;;;;4966033;28;20473;-64
2022/12/04 03:21:22;;;;;;;5.05;1.75;;;;;;;;;;4972778;28;20061;-64
2022/12/04 03:24:01;;;;;;;2.50;1.77;;;;;;;;;;4972832;28;20059;-65
2022/12/04 03:26:47;;;;;;;5.78;2.00;;;;;;;;;;4972765;28;20047;-64
2022/12/04 03:29:24;;;;;;;2.80;1.65;;;;;;;;;;4964372;28;20057;-66
2022/12/04 03:32:15;;;;;;;4.20;1.30;;;;;;;;;;5001986;28;20071;-63
2022/12/04 03:35:03;;;;;;;5.07;1.33;;;;;;;;;;5051353;28;20411;-62
2022/12/04 03:37:53;;;;;;;2.88;1.60;;;;;;;;;;5011493;28;20050;-61
2022/12/04 03:40:51;;;;;;;3.33;1.23;;;;;;;;;;4972559;28;20534;-63
2022/12/04 03:43:53;;;;;;;7.60;2.08;;;;;;;;;;4930559;29;20051;-62
2022/12/04 03:46:41;;;;;;;3.50;1.25;;;;;;;;;;4914968;29;20067;-61
2022/12/04 03:49:30;;;;;;;2.55;1.13;;;;;;;;;;4930187;29;20060;-62
2022/12/04 03:52:08;;;;;;;7.72;1.70;;;;;;;;;;4933174;29;20051;-63
2022/12/04 03:54:50;;;;;;;3.05;1.00;;;;;;;;;;4933554;29;20411;-62
2022/12/04 03:57:26;;;;;;;2.97;1.85;;;;;;;;;;4899194;29;20052;-62
2022/12/04 04:00:11;;;;;;;4.07;1.95;;;;;;;;;;4914839;29;20103;-62
2022/12/04 04:02:57;;;;;;;3.83;1.90;;;;;;;;;;4914745;29;20059;-62
2022/12/04 04:05:29;;;;;;;4.90;2.08;;;;;;;;;;4914688;29;20063;-61
2022/12/04 04:11:17;;;;;;;2.20;1.48;;;;;;;;;;4933442;29;20067;-61
2022/12/04 04:26:02;;;;;;;4.90;1.65;;;;;;;;;;4920670;29;20590;-62
2022/12/04 04:28:39;;;;;;;3.45;1.42;;;;;;;;;;4952201;29;20055;-61
2022/12/04 04:31:12;;;;;;;12.80;1.80;;;;;;;;;;4933014;29;20059;-62
2022/12/04 04:34:03;;;;;;;4.25;1.10;;;;;;;;;;4932900;29;20056;-61
2022/12/04 04:36:45;;;;;;;4.00;1.25;;;;;;;;;;4901524;29;20060;-61
2022/12/04 04:39:35;;;;;;;6.90;1.13;;;;;;;;;;4917000;29;20055;-62
2022/12/04 04:42:22;;;;;;;7.70;2.13;;;;;;;;;;4932834;29;20072;-61
2022/12/04 04:45:11;;;;;;;5.22;1.95;;;;;;;;;;4933228;29;20523;-62
2022/12/04 04:47:44;;;;;;;3.60;1.27;;;;;;;;;;4919573;29;20043;-62
2022/12/04 04:50:16;;;;;;;7.00;1.60;;;;;;;;;;4952071;29;20063;-63
2022/12/04 04:52:52;;;;;;;2.05;1.02;;;;;;;;;;4952027;29;20073;-62
2022/12/04 04:55:23;;;;;;;3.40;1.42;;;;;;;;;;5029727;28;20496;-62
2022/12/04 04:57:53;;;;;;;11.13;1.95;;;;;;;;;;5029948;28;20787;-62
2022/12/04 05:00:24;;;;;;;3.05;1.30;;;;;;;;;;5013343;28;20050;-62
2022/12/04 05:02:53;;;;;;;5.82;1.60;;;;;;;;;;4996802;28;20057;-62
2022/12/04 05:05:23;;;;;;;2.50;1.42;;;;;;;;;;5013684;28;20120;-62
2022/12/04 05:07:53;;;;;;;5.43;1.48;;;;;;;;;;5035173;28;20145;-62
2022/12/04 05:10:23;;;;;;;2.10;1.45;;;;;;;;;;5072118;28;20044;-62
2022/12/04 05:12:53;;;;;;;3.22;1.92;;;;;;;;;;5071997;28;20049;-62
2022/12/04 05:15:23;;;;;;;4.75;1.77;;;;;;;;;;5071893;28;20071;-62
2022/12/04 05:17:53;;;;;;;2.92;1.40;;;;;;;;;;5053036;28;20057;-62
2022/12/04 05:20:23;;;;;;;2.35;1.23;;;;;;;;;;5071965;28;20049;-63
2022/12/04 05:22:53;;;;;;;3.03;1.08;;;;;;;;;;5029649;28;20393;-62
2022/12/04 05:25:23;;;;;;;3.08;1.70;;;;;;;;;;5029545;28;20583;-62
2022/12/04 05:27:53;;;;;;;5.22;2.25;;;;;;;;;;5029416;28;20105;-63
2022/12/04 05:30:23;;;;;;;3.33;1.30;;;;;;;;;;5029594;28;20045;-62
2022/12/04 05:32:53;;;;;;;3.33;1.83;;;;;;;;;;5029148;28;20053;-62
2022/12/04 05:35:23;;;;;;;3.13;1.23;;;;;;;;;;4980315;28;20501;-62
2022/12/04 05:37:53;;;;;;;6.95;2.75;;;;;;;;;;5029369;28;20049;-63
2022/12/04 05:40:23;;;;;;;3.47;1.40;;;;;;;;;;5029265;28;20065;-63
2022/12/04 05:42:53;;;;;;;3.03;1.27;;;;;;;;;;5029215;28;20052;-62
2022/12/04 05:45:23;;;;;;;3.78;1.90;;;;;;;;;;5029302;28;20063;-62
2022/12/04 05:47:55;;;;;;;2.22;1.23;;;;;;;;;;5029178;28;20160;-63
2022/12/04 05:50:25;;;;;;;3.38;1.02;;;;;;;;;;5009290;28;20497;-62
2022/12/04 05:52:55;;;;;;;3.55;1.27;;;;;;;;;;4992884;28;20049;-62
2022/12/04 05:55:26;;;;;;;5.28;1.70;;;;;;;;;;4989314;28;20058;-62
2022/12/04 05:57:58;;;;;;;3.67;1.63;;;;;;;;;;4989621;28;20066;-62
2022/12/04 06:00:29;;;;;;;2.22;1.05;;;;;;;;;;5009209;28;20531;-62
2022/12/04 06:03:00;;;;;;;3.40;2.00;;;;;;;;;;5028826;28;20057;-62
2022/12/04 06:05:32;;;;;;;4.60;1.50;;;;;;;;;;5045137;28;20056;-62
2022/12/04 06:08:03;;;;;;;4.57;1.10;;;;;;;;;;5045053;28;20078;-62
2022/12/04 06:10:34;;;;;;;6.30;2.20;;;;;;;;;;5028865;28;20060;-62
2022/12/04 06:13:06;;;;;;;3.17;1.75;;;;;;;;;;5032084;28;20057;-62
2022/12/04 06:15:41;;;;;;;3.13;1.52;;;;;;;;;;5016234;28;20049;-62
2022/12/04 06:18:11;;;;;;;3.22;1.67;;;;;;;;;;5032434;28;20042;-62
2022/12/04 06:20:41;;;;;;;2.45;1.40;;;;;;;;;;5032811;28;20064;-62
2022/12/04 06:23:11;;;;;;;5.10;1.83;;;;;;;;;;5032565;28;20053;-62
2022/12/04 06:25:41;;;;;;;3.90;1.67;;;;;;;;;;5016208;28;20068;-61
2022/12/04 06:28:11;;;;;;;6.22;1.90;;;;;;;;;;5054958;28;20068;-62
2022/12/04 06:30:41;;;;;;;5.18;1.52;;;;;;;;;;5072808;28;20640;-61
2022/12/04 06:33:11;;;;;;;5.65;1.65;;;;;;;;;;5083418;28;20055;-61
2022/12/04 06:35:40;;;;;;;3.25;1.98;;;;;;;;;;5092812;28;20056;-61
2022/12/04 06:38:12;;;;;;;3.00;1.85;;;;;;;;;;5052370;28;20053;-61
2022/12/04 06:40:42;;;;;;;4.47;1.88;;;;;;;;;;5036107;28;20104;-62
2022/12/04 06:43:11;;;;;;;3.13;1.42;;;;;;;;;;5036007;28;20053;-62
2022/12/04 06:45:41;;;;;;;2.78;1.42;;;;;;;;;;5052172;28;20517;-62
2022/12/04 06:48:11;;;;;;;4.43;1.58;;;;;;;;;;5052220;28;20045;-61
2022/12/04 06:50:41;;;;;;;6.80;1.48;;;;;;;;;;5052137;28;20064;-62
2022/12/04 06:53:11;;;;;;;5.32;2.13;;;;;;;;;;5052044;28;20496;-62
2022/12/04 06:55:47;;;;;;;4.55;1.98;;;;;;;;;;5051833;28;20056;-61
2022/12/04 06:58:17;;;;;;;2.67;1.52;;;;;;;;;;5035206;28;20052;-61
2022/12/04 07:00:47;;;;;;;5.20;2.10;;;;;;;;;;5052134;28;20507;-62
2022/12/04 07:03:18;;;;;;;3.88;2.08;;;;;;;;;;5052303;28;20068;-62
2022/12/04 07:05:48;;;;;;;5.90;2.30;;;;;;;;;;5002452;28;20053;-62
2022/12/04 07:08:18;;;;;;;3.90;1.60;;;;;;;;;;5019179;28;20069;-62
2022/12/04 07:10:48;;;;;;;4.13;1.83;;;;;;;;;;5051706;28;20495;-63
2022/12/04 07:13:26;;;;;;;3.80;2.08;;;;;;;;;;5051604;28;20071;-62
2022/12/04 07:16:00;;;;;;;4.43;1.90;;;;;;;;;;5021813;28;20114;-61
2022/12/04 07:18:32;;;;;;;7.25;1.90;;;;;;;;;;5055184;28;20691;-62
2022/12/04 07:21:07;;;;;;;3.22;1.73;;;;;;;;;;5074048;28;20044;-62
2022/12/04 07:23:37;;;;;;;5.18;1.80;;;;;;;;;;5073395;28;20403;-62
2022/12/04 07:26:10;;;;;;;7.57;2.03;;;;;;;;;;5039171;28;20063;-62
2022/12/04 07:28:40;;;;;;;4.88;1.70;;;;;;;;;;5034349;28;20049;-62
2022/12/04 07:31:13;;;;;;;4.18;1.88;;;;;;;;;;5051476;28;20552;-62
2022/12/04 07:33:44;;;;;;;6.38;1.67;;;;;;;;;;5019039;28;20049;-63
2022/12/04 07:36:18;;;;;;;4.88;2.22;;;;;;;;;;5051669;28;20544;-62
2022/12/04 07:38:48;;;;;;;5.60;2.15;;;;;;;;;;5017708;28;20053;-62
2022/12/04 07:41:19;;;;;;;4.40;2.00;;;;;;;;;;5051274;28;20056;-61
2022/12/04 07:43:49;;;;;;;6.13;2.10;;;;;;;;;;5001632;28;20068;-62
2022/12/04 07:46:21;;;;;;;5.15;1.77;;;;;;;;;;5001957;28;20067;-62
2022/12/04 07:48:53;;;;;;;13.73;2.53;;;;;;;;;;5051118;28;20055;-62
2022/12/04 07:51:26;;;;;;;3.17;1.38;;;;;;;;;;5051172;28;20544;-62
2022/12/04 07:53:59;;;;;;;3.72;1.42;;;;;;;;;;5050933;28;20506;-62
2022/12/04 07:56:33;;;;;;;5.05;1.80;;;;;;;;;;5050991;28;20061;-62
2022/12/04 07:59:03;;;;;;;5.38;2.47;;;;;;;;;;5001430;28;20057;-63
2022/12/04 08:01:33;;;;;;;6.40;2.20;;;;;;;;;;5050993;28;20049;-62
2022/12/04 08:04:03;;;;;;;4.22;2.05;;;;;;;;;;5034578;28;20075;-62
2022/12/04 08:06:34;;;;;;;5.68;2.22;;;;;;;;;;5026204;28;20056;-62
2022/12/04 08:09:08;;;;;;;4.88;2.33;;;;;;;;;;5050758;28;20065;-62
2022/12/04 08:11:38;;;;;;;3.70;1.80;;;;;;;;;;5001370;28;20068;-62
2022/12/04 08:14:12;;;;;;;7.72;1.90;;;;;;;;;;5050625;28;20045;-62
2022/12/04 08:16:42;;;;;;;4.72;2.28;;;;;;;;;;4984650;28;20049;-62
2022/12/04 08:19:21;;;;;;;5.03;2.22;;;;;;;;;;5050342;28;20536;-62
2022/12/04 08:21:53;;;;;;;3.70;1.90;;;;;;;;;;5001040;28;20060;-62
2022/12/04 08:24:23;;;;;;;;;;;;;;;;;;5030694;28;20213;-62
2022/12/04 08:26:53;;;;;;;5.05;2.50;;;;;;;;;;4997460;28;19921;-62
2022/12/04 08:29:22;;;;;;;7.28;2.60;;;;;;;;;;5013556;28;20097;-61
2022/12/04 08:31:52;;;;;;;4.88;2.35;;;;;;;;;;5030507;28;20050;-63
2022/12/04 08:34:22;;;;;;;6.90;2.85;;;;;;;;;;5029432;28;20042;-62
2022/12/04 08:36:52;;;;;;;5.53;2.10;;;;;;;;;;5030462;28;20456;-63
2022/12/04 08:39:22;;;;;;;8.70;2.63;;;;;;;;;;4997323;28;20425;-62
2022/12/04 08:41:52;;;;;;;5.43;2.53;;;;;;;;;;5030338;28;20057;-62
2022/12/04 08:44:26;;;;;;;6.47;2.80;;;;;;;;;;5013427;28;20544;-62
2022/12/04 08:46:56;;;;;;;11.52;2.78;;;;;;;;;;4997453;28;20104;-61
2022/12/04 08:49:27;;;;;;;5.55;2.15;;;;;;;;;;5029997;28;20433;-62
2022/12/04 08:51:57;;;;;;;4.65;2.20;;;;;;;;;;5030148;28;20057;-62
2022/12/04 08:54:27;;;;;;;5.10;3.33;;;;;;;;;;4981490;28;20057;-61
2022/12/04 08:57:04;;;;;;;5.68;2.00;;;;;;;;;;5029982;28;20049;-62
2022/12/04 08:59:34;;;;;;;12.27;3.33;;;;;;;;;;4997084;28;20061;-62
2022/12/04 09:02:04;;;;;;;6.28;2.80;;;;;;;;;;5041680;28;20056;-62
2022/12/04 09:04:34;;;;;;;13.55;2.80;;;;;;;;;;5036462;28;20061;-62
2022/12/04 09:07:04;;;;;;;7.25;2.60;;;;;;;;;;5003671;28;20047;-62
2022/12/04 09:09:34;;;;;;;6.32;2.58;;;;;;;;;;5052993;28;20048;-61
2022/12/04 09:12:04;;;;;;;4.85;2.40;;;;;;;;;;5036874;28;20507;-62
2022/12/04 09:14:34;;;;;;;12.55;2.53;;;;;;;;;;5029297;28;20045;-62
2022/12/04 09:17:04;;;;;;;5.28;2.10;;;;;;;;;;5029834;28;20064;-62
2022/12/04 09:19:35;;;;;;;4.18;1.90;;;;;;;;;;4997020;28;20100;-62
2022/12/04 09:22:06;;;;;;;5.30;2.47;;;;;;;;;;5029772;28;20493;-62
2022/12/04 09:24:35;;;;;;;6.95;2.20;;;;;;;;;;4997236;28;20057;-62
2022/12/04 09:27:05;;;;;;;7.93;2.50;;;;;;;;;;5029442;28;20061;-62
2022/12/04 09:29:43;;;;;;;7.45;3.50;;;;;;;;;;4997751;28;20447;-62
2022/12/04 09:32:13;;;;;;;12.30;3.05;;;;;;;;;;5029565;28;20053;-62
2022/12/04 09:34:42;;;;;;;7.70;2.40;;;;;;;;;;5029335;28;20046;-62
2022/12/04 09:37:19;;;;;;;3.63;2.53;;;;;;;;;;5029498;28;20057;-62
2022/12/04 09:39:48;;;;;;;5.53;2.80;;;;;;;;;;5029171;28;20061;-62
2022/12/04 09:42:29;;;;;;;3.97;2.42;;;;;;;;;;5029288;28;20049;-62
2022/12/04 09:45:22;;;;;;;4.10;2.53;;;;;;;;;;4996983;28;20062;-62
2022/12/04 09:47:57;;;;;;;5.85;2.28;;;;;;;;;;5029244;28;20073;-61
2022/12/04 09:50:41;;;;;;;9.20;2.88;;;;;;;;;;4997668;28;20057;-61
2022/12/04 09:53:25;;;;;;;6.60;2.00;;;;;;;;;;5067155;28;20052;-63
2022/12/04 09:56:03;;;;;;;4.70;2.10;;;;;;;;;;5084784;28;20063;-61
2022/12/04 09:59:05;;;;;;;5.07;1.58;;;;;;;;;;5055988;28;20071;-62
2022/12/04 10:02:24;;;;;;;3.90;1.88;;;;;;;;;;5012907;28;20157;-62
2022/12/04 10:04:56;;;;;;;4.97;2.13;;;;;;;;;;4970274;28;20063;-62
2022/12/04 10:07:36;;;;;;;4.13;2.60;;;;;;;;;;4938183;28;20059;-61
2022/12/04 10:10:18;;;;;;;5.22;1.65;;;;;;;;;;4955448;28;20058;-61
2022/12/04 10:12:56;;;;;;;6.68;1.73;;;;;;;;;;4931866;29;20048;-63
2022/12/04 10:15:37;;;;;;;2.83;1.38;;;;;;;;;;4931904;29;20048;-62
2022/12/04 10:18:23;;;;;;;4.25;2.03;;;;;;;;;;4915856;29;20071;-62
2022/12/04 10:21:17;;;;;;;5.25;2.05;;;;;;;;;;4931821;29;20080;-63
2022/12/04 10:23:58;;;;;;;5.18;2.45;;;;;;;;;;4900370;29;20066;-63
2022/12/04 10:26:35;;;;;;;6.05;1.50;;;;;;;;;;4931932;29;20060;-63
2022/12/04 10:29:13;;;;;;;4.07;1.90;;;;;;;;;;4902080;29;20503;-62
2022/12/04 10:31:45;;;;;;;6.03;3.22;;;;;;;;;;4886082;29;20058;-62
2022/12/04 10:34:18;;;;;;;3.65;1.83;;;;;;;;;;4915648;29;20496;-63
2022/12/04 10:36:55;;;;;;;3.45;2.25;;;;;;;;;;4931402;29;20060;-63
2022/12/04 10:39:34;;;;;;;3.45;2.15;;;;;;;;;;4953675;28;20058;-63
2022/12/04 10:42:11;;;;;;;3.80;1.65;;;;;;;;;;5019364;28;20053;-64
2022/12/04 10:44:41;;;;;;;8.02;2.50;;;;;;;;;;5015787;28;20483;-64
2022/12/04 10:47:13;;;;;;;5.60;2.42;;;;;;;;;;5048733;28;20065;-63
2022/12/04 10:49:43;;;;;;;;;;;;;;;;;;5056616;28;20051;-64
2022/12/04 10:52:13;;;;;;;3.92;1.83;;;;;;;;;;5075842;28;20296;-63
2022/12/04 10:54:48;;;;;;;3.45;1.58;;;;;;;;;;5090627;28;20645;-64
2022/12/04 10:57:20;;;;;;;3.45;2.15;;;;;;;;;;5082945;28;20060;-64
2022/12/04 10:59:53;;;;;;;3.45;1.52;;;;;;;;;;5073131;28;20059;-63
2022/12/04 11:02:33;;;;;;;4.22;1.70;;;;;;;;;;5096531;28;20056;-64
2022/12/04 11:05:22;;;;;;;4.40;1.77;;;;;;;;;;5079003;28;20055;-63
2022/12/04 11:07:54;;;;;;;4.95;2.15;;;;;;;;;;5077348;28;20060;-65
2022/12/04 11:10:37;;;;;;;2.15;1.35;;;;;;;;;;5068497;28;20052;-63
2022/12/04 11:13:17;;;;;;;2.50;1.17;;;;;;;;;;5060572;28;20056;-63
2022/12/04 11:15:50;;;;;;;5.18;1.90;;;;;;;;;;5058961;28;20066;-63
2022/12/04 11:18:30;;;;;;;4.55;2.58;;;;;;;;;;5050458;28;20053;-63
2022/12/04 11:21:00;;;;;;;4.75;2.35;;;;;;;;;;5058972;28;20067;-63
2022/12/04 11:23:51;;;;;;;3.90;1.80;;;;;;;;;;5069678;28;20055;-63
2022/12/04 11:26:29;;;;;;;;;;;;;;;;;;5069830;28;20052;-63
2022/12/04 11:29:01;;;;;;;7.18;1.70;;;;;;;;;;5070438;28;19925;-64
2022/12/04 11:31:32;;;;;;;3.28;1.23;;;;;;;;;;5005642;28;20048;-63
2022/12/04 11:34:08;;;;;;;7.25;2.40;;;;;;;;;;5071582;28;20045;-63
2022/12/04 11:36:40;;;;;;;6.13;3.30;;;;;;;;;;5059567;28;20523;-64
2022/12/04 11:39:11;;;;;;;5.45;2.55;;;;;;;;;;5050766;28;20120;-63
2022/12/04 11:41:41;;;;;;;3.60;2.70;;;;;;;;;;5042604;28;20049;-63
2022/12/04 11:44:31;;;;;;;2.95;2.13;;;;;;;;;;5047166;28;20060;-63
2022/12/04 11:47:04;;;;;;;3.92;1.60;;;;;;;;;;5034428;28;20064;-63
2022/12/04 11:49:34;;;;;;;3.25;1.63;;;;;;;;;;5070515;28;20060;-63
2022/12/04 11:52:27;;;;;;;4.32;1.90;;;;;;;;;;5019619;28;20413;-65
2022/12/04 11:55:19;;;;;;;5.07;1.55;;;;;;;;;;5049734;28;20056;-65
2022/12/04 11:58:21;;;;;;;5.03;1.23;;;;;;;;;;5048259;28;20053;-66
2022/12/04 12:01:25;;;;;;;3.55;3.25;;;;;;;;;;5050061;28;20493;-65
2022/12/04 12:04:31;;;;;;;4.70;2.05;;;;;;;;;;5049742;28;20060;-65
2022/12/04 12:07:15;;;;;;;2.00;1.50;;;;;;;;;;5056962;28;20040;-65
2022/12/04 12:10:23;;;;;;;3.78;1.70;;;;;;;;;;4973926;28;20545;-65
2022/12/04 12:12:56;;;;;;;4.65;1.83;;;;;;;;;;4968786;28;20604;-65
2022/12/04 12:15:48;;;;;;;4.82;1.42;;;;;;;;;;4977484;28;20050;-64
2022/12/04 12:18:45;;;;;;;2.83;1.10;;;;;;;;;;5010940;28;20379;-63
2022/12/04 12:21:50;;;;;;;3.47;1.88;;;;;;;;;;5000107;28;20564;-63
2022/12/04 12:24:31;;;;;;;2.15;1.40;;;;;;;;;;4981973;28;20053;-62
2022/12/04 12:27:20;;;;;;;4.90;2.03;;;;;;;;;;5030465;28;20045;-64
2022/12/04 12:30:11;;;;;;;3.75;1.45;;;;;;;;;;5013897;28;20053;-62
2022/12/04 12:33:14;;;;;;;2.70;1.20;;;;;;;;;;5030508;28;20049;-62
2022/12/04 12:36:02;;;;;;;2.00;1.63;;;;;;;;;;5014188;28;20052;-63
2022/12/04 12:38:34;;;;;;;2.30;1.80;;;;;;;;;;5044548;28;20593;-62
2022/12/04 12:41:14;;;;;;;1.83;1.13;;;;;;;;;;5001847;28;20065;-62
2022/12/04 12:43:53;;;;;;;3.80;2.35;;;;;;;;;;5049970;28;20048;-62
2022/12/04 12:46:37;;;;;;;3.25;1.27;;;;;;;;;;5037890;28;20053;-63
2022/12/04 12:49:17;;;;;;;4.28;1.55;;;;;;;;;;5113090;28;20051;-62
2022/12/04 12:52:09;;;;;;;2.72;1.20;;;;;;;;;;5076598;28;20055;-63
2022/12/04 12:54:39;;;;;;;1.92;1.55;;;;;;;;;;5112873;28;20043;-62
2022/12/04 12:57:16;;;;;;;5.45;1.45;;;;;;;;;;5112443;28;20040;-62
2022/12/04 12:59:52;;;;;;;1.45;1.05;;;;;;;;;;5075687;28;20522;-61
2022/12/04 13:02:36;;;;;;;1.40;1.10;;;;;;;;;;5076873;28;20059;-62
2022/12/04 13:05:10;;;;;;;2.13;1.13;;;;;;;;;;5059892;28;20059;-61
2022/12/04 13:07:52;;;;;;;1.80;1.08;;;;;;;;;;5065320;28;20060;-63
2022/12/04 13:10:57;;;;;;;1.92;0.80;;;;;;;;;;5072952;28;20610;-63
2022/12/04 13:13:32;;;;;;;1.85;1.00;;;;;;;;;;5029633;28;20060;-63
2022/12/04 13:16:13;;;;;;;0.90;0.73;;;;;;;;;;5030033;28;20052;-62
2022/12/04 13:18:58;;;;;;;1.52;0.90;;;;;;;;;;5013673;28;20515;-62
2022/12/04 13:21:38;;;;;;;1.38;0.82;;;;;;;;;;5029000;28;20061;-64
2022/12/04 13:24:27;;;;;;;2.15;0.80;;;;;;;;;;4964855;28;20056;-64
2022/12/04 13:27:05;;;;;;;1.15;1.05;;;;;;;;;;5009535;28;20045;-63
2022/12/04 13:29:40;;;;;;;1.92;0.95;;;;;;;;;;5009780;28;20068;-64
2022/12/04 13:32:36;;;;;;;3.15;1.17;;;;;;;;;;5028070;28;20465;-63
2022/12/04 13:35:42;;;;;;;0.85;0.70;;;;;;;;;;5013125;28;20064;-64
2022/12/04 13:38:45;;;;;;;1.15;0.85;;;;;;;;;;5029176;28;20057;-64
2022/12/04 13:41:20;;;;;;;1.35;0.82;;;;;;;;;;4989411;28;20524;-65
2022/12/04 13:43:52;;;;;;;1.15;0.68;;;;;;;;;;4989708;28;20058;-68
2022/12/04 13:46:41;;;;;;;3.15;1.02;;;;;;;;;;4989966;28;20059;-63
2022/12/04 13:49:17;;;;;;;2.80;1.25;;;;;;;;;;4993640;28;20456;-66
2022/12/04 13:51:49;;;;;;;1.52;1.05;;;;;;;;;;5049132;28;20064;-65
2022/12/04 13:54:23;;;;;;;3.65;1.17;;;;;;;;;;5015741;28;20049;-65
2022/12/04 13:56:57;;;;;;;2.22;1.13;;;;;;;;;;5048557;28;20626;-65
2022/12/04 13:59:29;;;;;;;1.27;0.82;;;;;;;;;;5048958;28;20053;-65
2022/12/04 14:02:25;;;;;;;2.13;1.13;;;;;;;;;;5049095;28;20053;-65
2022/12/04 14:05:02;;;;;;;12.77;11.48;;;;;;;;;;4951141;29;20062;-65
2022/12/04 14:07:36;;;;;;;2.33;1.92;;;;;;;;;;4950587;29;20055;-65
2022/12/04 14:10:15;;;;;;;3.30;1.15;;;;;;;;;;4968016;28;20542;-65
2022/12/04 14:13:01;;;;;;;1.63;1.50;;;;;;;;;;4962326;28;20059;-65
2022/12/04 14:15:36;;;;;;;3.72;1.92;;;;;;;;;;4969924;28;20067;-67
2022/12/04 14:18:13;;;;;;;4.95;4.55;;;;;;;;;;4969342;28;20054;-66
2022/12/04 14:20:44;;;;;;;2.38;1.55;;;;;;;;;;4959283;28;20058;-68
2022/12/04 14:23:25;;;;;;;1.42;0.73;;;;;;;;;;4947681;28;20552;-66
2022/12/04 14:25:58;;;;;;;1.65;1.05;;;;;;;;;;4966557;28;20070;-65
2022/12/04 14:28:32;;;;;;;5.47;1.77;;;;;;;;;;4965562;28;20056;-65
2022/12/04 14:31:33;;;;;;;3.60;1.17;;;;;;;;;;4950623;28;20059;-65
2022/12/04 14:34:25;;;;;;;1.55;1.02;;;;;;;;;;4953864;28;20071;-65
2022/12/04 14:36:57;;;;;;;2.97;2.17;;;;;;;;;;4954593;28;20055;-65
2022/12/04 14:39:39;;;;;;;2.95;1.67;;;;;;;;;;4954407;28;20051;-65
2022/12/04 14:42:27;;;;;;;2.58;1.33;;;;;;;;;;4967769;28;20065;-65
2022/12/04 14:44:59;;;;;;;2.33;1.52;;;;;;;;;;4944873;28;20062;-65
2022/12/04 14:47:42;;;;;;;2.47;1.20;;;;;;;;;;4928245;28;20050;-65
2022/12/04 14:50:31;;;;;;;2.25;1.17;;;;;;;;;;4976454;28;20058;-66
2022/12/04 14:53:04;;;;;;;3.45;1.83;;;;;;;;;;5012448;28;20046;-66
2022/12/04 14:55:59;;;;;;;1.80;0.90;;;;;;;;;;5020406;28;20546;-66
2022/12/04 14:58:38;;;;;;;3.05;0.90;;;;;;;;;;4986283;28;20417;-64
2022/12/04 15:01:25;;;;;;;2.78;2.03;;;;;;;;;;5069502;28;20052;-65
2022/12/04 15:04:03;;;;;;;3.13;1.45;;;;;;;;;;5094268;28;20040;-65
2022/12/04 15:06:38;;;;;;;2.20;1.90;;;;;;;;;;5075496;28;20051;-65
2022/12/04 15:12:34;;;;;;;2.28;1.40;;;;;;;;;;5094784;28;20547;-66
2022/12/04 15:15:26;;;;;;;3.13;1.33;;;;;;;;;;5058361;28;20059;-65
2022/12/04 15:18:09;;;;;;;3.45;2.33;;;;;;;;;;5094388;28;20059;-64
2022/12/04 15:20:48;;;;;;;16.70;9.10;;;;;;;;;;5094543;28;20040;-65
2022/12/04 15:23:43;;;;;;;7.35;4.18;;;;;;;;;;5103990;28;20043;-66
2022/12/04 15:26:19;;;;;;;4.50;3.38;;;;;;;;;;5093984;28;20492;-66
2022/12/04 15:28:56;;;;;;;7.32;4.13;;;;;;;;;;5054339;28;20055;-65
2022/12/04 15:31:45;;;;;;;4.80;2.40;;;;;;;;;;5050320;28;20440;-64
2022/12/04 15:34:21;;;;;;;3.28;1.63;;;;;;;;;;5017505;28;20057;-64
2022/12/04 15:37:08;;;;;;;4.95;2.28;;;;;;;;;;5017808;28;20056;-66
2022/12/04 15:39:39;;;;;;;1.90;1.52;;;;;;;;;;5001348;28;20527;-65
2022/12/04 15:42:23;;;;;;;2.45;1.50;;;;;;;;;;5050758;28;20484;-65
2022/12/04 15:45:08;;;;;;;2.78;1.58;;;;;;;;;;5017688;28;20060;-65
2022/12/04 15:47:56;;;;;;;2.25;1.08;;;;;;;;;;5050952;28;20137;-65
2022/12/04 15:50:28;;;;;;;1.73;1.20;;;;;;;;;;5050104;28;20069;-65
2022/12/04 15:53:14;;;;;;;2.83;1.80;;;;;;;;;;5051176;28;20045;-65
2022/12/04 15:55:56;;;;;;;2.85;1.50;;;;;;;;;;4984453;28;20044;-65
2022/12/04 15:58:36;;;;;;;2.80;1.05;;;;;;;;;;5018231;28;20053;-65
2022/12/04 16:01:09;;;;;;;1.67;1.35;;;;;;;;;;5051024;28;20092;-65